Time;durP1;ratioP1;P1;durP2;ratioP2;P2;SDS_P1;SDS_P2;PMS_P1;PMS_P2;Temp;Humidity;BMP_temperature;BMP_pressure;BME280_temperature;BME280_humidity;BME280_pressure;Samples;Min_cycle;Max_cycle;Signal;HPM_P1;HPM_P2
2020/12/05 00:01:02;;;;;;;12.52;4.50;;;;;;;2.53;82.27;97819.91;5078531;28;20064;-79
2020/12/05 00:03:29;;;;;;;12.63;4.30;;;;;;;2.58;81.94;97825.72;5078938;28;20075;-79
2020/12/05 00:05:55;;;;;;;8.45;4.30;;;;;;;2.60;81.70;97817.72;5077518;28;20049;-77
2020/12/05 00:08:22;;;;;;;6.60;3.67;;;;;;;2.59;81.68;97816.84;5078996;28;20048;-80
2020/12/05 00:10:48;;;;;;;9.85;4.35;;;;;;;2.66;81.62;97830.47;5079003;28;20438;-79
2020/12/05 00:13:15;;;;;;;11.98;4.75;;;;;;;2.67;81.60;97837.44;5077392;28;20048;-79
2020/12/05 00:15:41;;;;;;;10.25;4.05;;;;;;;2.75;81.12;97831.63;5078439;28;20044;-79
2020/12/05 00:18:08;;;;;;;7.63;4.10;;;;;;;2.74;81.20;97829.94;5077416;28;20060;-78
2020/12/05 00:20:34;;;;;;;11.30;4.43;;;;;;;2.71;81.33;97833.63;5075721;28;20394;-80
2020/12/05 00:23:00;;;;;;;9.27;4.82;;;;;;;2.75;80.98;97835.13;5079697;28;20048;-78
2020/12/05 00:25:27;;;;;;;10.90;4.57;;;;;;;2.69;81.34;97825.00;5082501;28;20040;-78
2020/12/05 00:27:53;;;;;;;8.40;4.13;;;;;;;2.72;81.48;97828.28;5062174;28;20044;-78
2020/12/05 00:30:19;;;;;;;11.30;4.45;;;;;;;2.69;81.80;97828.47;5078798;28;20048;-78
2020/12/05 00:32:45;;;;;;;8.60;4.43;;;;;;;2.61;81.99;97837.84;5078464;28;20045;-80
2020/12/05 00:35:12;;;;;;;9.95;4.68;;;;;;;2.57;82.18;97831.94;5061261;28;20055;-78
2020/12/05 00:37:38;;;;;;;11.50;5.30;;;;;;;2.53;82.40;97820.75;5078402;28;20426;-77
2020/12/05 00:40:05;;;;;;;12.18;4.22;;;;;;;2.39;82.40;97812.91;5078210;28;20051;-78
2020/12/05 00:42:32;;;;;;;7.38;4.07;;;;;;;2.46;82.52;97810.72;5078990;28;20059;-79
2020/12/05 00:44:59;;;;;;;7.22;4.30;;;;;;;2.26;82.88;97805.81;5078129;28;20045;-80
2020/12/05 00:47:28;;;;;;;7.50;4.25;;;;;;;2.39;83.05;97826.06;5077677;28;20056;-79
2020/12/05 00:49:55;;;;;;;13.50;4.70;;;;;;;2.29;82.95;97805.59;5077208;28;20064;-79
2020/12/05 00:52:24;;;;;;;8.95;4.20;;;;;;;2.35;83.17;97819.31;5077763;28;20057;-78
2020/12/05 00:54:50;;;;;;;10.52;4.45;;;;;;;2.12;83.21;97804.06;5078447;28;20056;-78
2020/12/05 00:57:16;;;;;;;8.07;4.15;;;;;;;2.27;83.49;97835.59;5077259;28;20065;-78
2020/12/05 00:59:43;;;;;;;9.98;4.57;;;;;;;2.27;83.58;97835.59;5078805;28;20052;-78
2020/12/05 01:02:09;;;;;;;8.70;4.78;;;;;;;2.20;83.88;97835.16;5061300;28;20044;-78
2020/12/05 01:04:36;;;;;;;7.88;4.60;;;;;;;2.09;84.26;97829.72;5079238;28;20523;-77
2020/12/05 01:07:03;;;;;;;10.77;4.40;;;;;;;2.16;83.76;97842.41;5079148;28;20370;-77
2020/12/05 01:09:30;;;;;;;8.85;4.60;;;;;;;2.03;84.01;97816.00;5081224;28;20048;-76
2020/12/05 01:11:56;;;;;;;11.02;4.53;;;;;;;2.12;83.99;97832.19;5079051;28;20121;-78
2020/12/05 01:14:23;;;;;;;8.88;4.57;;;;;;;2.11;83.81;97843.63;5062499;28;20052;-76
2020/12/05 01:16:49;;;;;;;13.10;4.90;;;;;;;2.07;84.08;97850.03;5081645;28;20048;-78
2020/12/05 01:19:15;;;;;;;7.25;3.67;;;;;;;1.93;84.43;97835.13;5077116;28;20358;-77
2020/12/05 01:21:45;;;;;;;13.90;5.35;;;;;;;2.00;84.41;97853.06;5078398;28;20159;-77
2020/12/05 01:24:11;;;;;;;8.95;4.28;;;;;;;1.97;84.28;97857.66;5080519;28;20049;-77
2020/12/05 01:26:38;;;;;;;10.25;4.53;;;;;;;1.92;84.92;97859.72;5079282;28;20402;-77
2020/12/05 01:29:04;;;;;;;10.48;5.22;;;;;;;1.87;84.70;97866.13;5079685;28;20051;-78
2020/12/05 01:31:30;;;;;;;13.98;4.72;;;;;;;1.91;85.13;97866.81;5079534;28;20106;-78
2020/12/05 01:34:02;;;;;;;8.25;4.05;;;;;;;1.95;85.09;97873.53;5078037;28;20800;-78
2020/12/05 01:36:29;;;;;;;8.10;3.70;;;;;;;2.01;84.54;97874.94;5078693;28;20059;-78
2020/12/05 01:38:56;;;;;;;6.85;3.47;;;;;;;1.90;84.83;97870.34;5078628;28;20048;-79
2020/12/05 01:41:22;;;;;;;8.30;4.88;;;;;;;1.99;84.25;97884.72;5080284;28;20130;-77
2020/12/05 01:43:49;;;;;;;5.65;3.67;;;;;;;1.97;84.68;97892.69;5079035;28;20068;-79
2020/12/05 01:46:31;;;;;;;5.65;3.90;;;;;;;1.88;84.96;97888.88;5080305;28;20052;-77
2020/12/05 01:48:57;;;;;;;5.45;3.72;;;;;;;1.94;84.93;97906.06;5079179;28;20048;-77
2020/12/05 01:51:24;;;;;;;5.65;3.80;;;;;;;2.03;84.80;97897.56;5079694;28;20052;-79
2020/12/05 01:53:50;;;;;;;9.35;4.00;;;;;;;2.07;84.88;97894.78;5078883;28;20401;-78
2020/12/05 01:56:17;;;;;;;9.32;4.03;;;;;;;2.16;84.85;97904.72;5078981;28;20105;-78
2020/12/05 01:58:43;;;;;;;7.65;3.78;;;;;;;2.17;84.76;97896.72;5080396;28;20049;-77
2020/12/05 02:01:11;;;;;;;6.43;3.60;;;;;;;2.18;84.57;97897.56;5079936;28;20122;-78
2020/12/05 02:03:40;;;;;;;8.18;3.75;;;;;;;2.26;84.46;97902.34;5079908;28;20051;-77
2020/12/05 02:06:12;;;;;;;6.43;3.60;;;;;;;2.22;84.48;97890.34;5079861;28;20414;-78
2020/12/05 02:08:53;;;;;;;6.72;3.97;;;;;;;2.24;84.46;97902.44;5078723;28;20045;-76
2020/12/05 02:11:24;;;;;;;4.93;3.50;;;;;;;2.24;84.63;97907.69;5078387;28;20064;-78
2020/12/05 02:13:58;;;;;;;7.05;3.50;;;;;;;2.23;84.53;97900.75;5079873;28;20061;-78
2020/12/05 02:16:25;;;;;;;5.32;3.80;;;;;;;2.22;84.94;97906.97;5078770;28;20041;-80
2020/12/05 02:18:53;;;;;;;8.45;3.72;;;;;;;2.18;84.66;97892.28;5077810;28;20346;-78
2020/12/05 02:21:25;;;;;;;8.27;3.80;;;;;;;2.34;84.28;97913.22;5075065;28;20379;-79
2020/12/05 02:23:52;;;;;;;6.03;3.95;;;;;;;2.30;84.35;97914.38;5075900;28;20488;-78
2020/12/05 02:26:19;;;;;;;9.43;3.97;;;;;;;2.26;84.71;97916.38;5059149;28;20045;-79
2020/12/05 02:28:45;;;;;;;6.20;4.15;;;;;;;2.21;84.89;97921.06;5075095;28;20048;-77
2020/12/05 02:31:11;;;;;;;9.27;4.15;;;;;;;2.18;85.07;97918.59;5075954;28;20192;-78
2020/12/05 02:33:38;;;;;;;6.40;3.63;;;;;;;2.16;84.93;97920.50;5075278;28;20052;-78
2020/12/05 02:36:04;;;;;;;7.95;4.25;;;;;;;2.03;84.74;97909.91;5076096;28;20106;-80
2020/12/05 02:38:41;;;;;;;8.10;3.50;;;;;;;2.04;85.08;97916.84;5074400;28;20408;-77
2020/12/05 02:41:07;;;;;;;7.80;3.90;;;;;;;2.03;85.08;97915.16;5075939;28;20106;-77
2020/12/05 02:43:35;;;;;;;7.80;4.07;;;;;;;1.97;85.17;97911.13;5076119;28;20075;-78
2020/12/05 02:46:01;;;;;;;6.80;4.13;;;;;;;1.87;85.57;97910.00;5075436;28;20082;-77
2020/12/05 02:48:27;;;;;;;11.23;4.35;;;;;;;1.76;85.44;97905.41;5075477;28;20048;-77
2020/12/05 02:50:54;;;;;;;5.90;3.95;;;;;;;1.66;85.83;97896.38;5075215;28;20125;-78
2020/12/05 02:53:20;;;;;;;9.43;3.83;;;;;;;1.66;85.66;97891.97;5075386;28;20060;-78
2020/12/05 02:55:49;;;;;;;6.90;4.20;;;;;;;1.70;85.95;97901.34;5075472;28;20052;-78
2020/12/05 02:58:15;;;;;;;6.85;3.90;;;;;;;1.58;85.58;97900.31;5075793;28;20712;-78
2020/12/05 03:00:41;;;;;;;7.47;3.63;;;;;;;1.54;85.93;97909.34;5075531;28;20056;-77
2020/12/05 03:03:07;;;;;;;6.25;4.05;;;;;;;1.49;86.00;97906.16;5075320;28;20136;-77
2020/12/05 03:05:34;;;;;;;5.72;4.18;;;;;;;1.34;85.97;97898.25;5081546;28;20056;-77
2020/12/05 03:08:00;;;;;;;8.77;4.03;;;;;;;1.37;86.39;97918.25;5079781;28;20056;-78
2020/12/05 03:10:26;;;;;;;7.28;3.83;;;;;;;1.29;86.22;97910.81;5074188;28;20079;-79
2020/12/05 03:12:52;;;;;;;8.60;4.13;;;;;;;1.35;86.43;97926.22;5075477;28;20048;-77
2020/12/05 03:15:19;;;;;;;6.25;4.25;;;;;;;1.30;86.20;97922.19;5075398;28;20381;-78
2020/12/05 03:17:45;;;;;;;8.60;4.20;;;;;;;1.23;86.70;97932.19;5074874;28;20048;-78
2020/12/05 03:20:11;;;;;;;6.90;3.83;;;;;;;1.17;86.69;97936.03;5073496;28;20048;-77
2020/12/05 03:22:38;;;;;;;10.23;4.22;;;;;;;1.15;86.37;97937.88;5075160;28;20052;-77
2020/12/05 03:25:05;;;;;;;11.20;4.10;;;;;;;1.05;86.73;97939.38;5075393;28;20044;-77
2020/12/05 03:27:31;;;;;;;7.43;4.10;;;;;;;1.07;86.57;97943.59;5075199;28;20393;-78
2020/12/05 03:29:58;;;;;;;8.27;4.80;;;;;;;0.99;86.85;97934.47;5075324;28;20063;-79
2020/12/05 03:32:29;;;;;;;7.20;4.38;;;;;;;0.96;86.83;97945.16;5057439;28;20045;-79
2020/12/05 03:34:57;;;;;;;5.63;4.17;;;;;;;0.92;87.55;97960.22;5075190;28;20051;-78
2020/12/05 03:37:24;;;;;;;9.32;4.28;;;;;;;0.76;87.41;97940.09;5075104;28;20098;-77
2020/12/05 03:39:52;;;;;;;8.85;4.10;;;;;;;0.79;86.87;97949.56;5075150;28;20492;-79
2020/12/05 03:42:18;;;;;;;6.80;4.10;;;;;;;0.85;87.05;97970.25;5075083;28;20396;-77
2020/12/05 03:44:44;;;;;;;5.40;4.00;;;;;;;0.89;87.55;97965.66;5075019;28;20044;-78
2020/12/05 03:47:10;;;;;;;6.85;4.50;;;;;;;0.80;87.60;97977.53;5074724;28;20113;-78
2020/12/05 03:49:37;;;;;;;5.47;3.67;;;;;;;0.78;86.78;97972.38;5075163;28;20086;-78
2020/12/05 03:52:04;;;;;;;8.38;4.20;;;;;;;0.75;87.17;97979.56;5074831;28;20056;-78
2020/12/05 03:54:31;;;;;;;7.97;4.45;;;;;;;0.68;87.01;97979.06;5074908;28;20048;-79
2020/12/05 03:56:58;;;;;;;6.47;4.90;;;;;;;0.55;87.20;97968.41;5073905;28;20080;-78
2020/12/05 03:59:25;;;;;;;7.03;4.18;;;;;;;0.62;87.07;97976.78;5074555;28;20052;-80
2020/12/05 04:01:51;;;;;;;4.82;3.90;;;;;;;0.61;87.19;97975.09;5074975;28;20060;-77
2020/12/05 04:04:18;;;;;;;6.90;3.97;;;;;;;0.62;87.42;97980.28;5074898;28;20110;-78
2020/12/05 04:06:44;;;;;;;9.88;4.70;;;;;;;0.61;87.77;97982.97;5073903;28;20049;-76
2020/12/05 04:09:10;;;;;;;7.65;4.50;;;;;;;0.56;87.79;97980.59;5073455;28;20110;-76
2020/12/05 04:11:40;;;;;;;7.88;4.13;;;;;;;0.56;87.19;97974.50;5074514;28;20064;-78
2020/12/05 04:14:09;;;;;;;5.47;3.88;;;;;;;0.49;87.27;97974.00;5075081;28;20052;-79
2020/12/05 04:16:37;;;;;;;7.40;3.90;;;;;;;0.49;87.48;97976.63;5074681;28;20114;-78
2020/12/05 04:19:04;;;;;;;9.10;5.13;;;;;;;0.46;87.40;97987.28;5074766;28;20052;-79
2020/12/05 04:21:32;;;;;;;7.63;3.95;;;;;;;0.46;87.32;97980.25;5075108;28;20052;-77
2020/12/05 04:23:58;;;;;;;7.13;4.05;;;;;;;0.48;87.82;97973.13;5075238;28;20388;-79
2020/12/05 04:26:24;;;;;;;7.20;3.85;;;;;;;0.56;87.15;97996.34;5075215;28;20046;-79
2020/12/05 04:28:51;;;;;;;9.60;4.05;;;;;;;0.61;87.82;98004.81;5075379;28;20110;-79
2020/12/05 04:31:17;;;;;;;7.72;3.97;;;;;;;0.78;87.75;98011.78;5093745;28;20059;-77
2020/12/05 04:33:43;;;;;;;10.57;4.60;;;;;;;0.66;88.32;98017.69;5095499;28;20052;-77
2020/12/05 04:36:09;;;;;;;6.88;4.07;;;;;;;0.51;88.41;97998.38;5095065;28;20049;-77
2020/12/05 04:38:39;;;;;;;6.63;3.97;;;;;;;0.75;87.89;98021.56;5063502;28;20060;-76
2020/12/05 04:41:05;;;;;;;6.05;3.97;;;;;;;0.76;87.84;98013.63;5078749;28;20052;-79
2020/12/05 04:43:33;;;;;;;4.45;3.53;;;;;;;0.83;87.63;98015.91;5078388;28;20052;-78
2020/12/05 04:46:01;;;;;;;5.53;3.67;;;;;;;0.86;87.38;98007.88;5078074;28;20513;-79
2020/12/05 04:48:30;;;;;;;8.13;4.45;;;;;;;0.90;87.51;98012.00;5078906;28;20125;-77
2020/12/05 04:51:00;;;;;;;10.23;4.03;;;;;;;0.89;87.54;98018.19;5077944;28;20059;-78
2020/12/05 04:53:27;;;;;;;6.22;3.80;;;;;;;0.89;87.64;98003.28;5078224;28;20053;-78
2020/12/05 04:55:57;;;;;;;8.38;3.17;;;;;;;0.91;87.19;98009.31;5077914;28;20045;-78
2020/12/05 04:58:24;;;;;;;10.48;3.90;;;;;;;1.01;87.64;98014.88;5077495;28;20109;-79
2020/12/05 05:00:53;;;;;;;6.50;3.92;;;;;;;0.99;87.74;98019.38;5077417;28;20139;-77
2020/12/05 05:03:22;;;;;;;10.57;4.10;;;;;;;1.08;87.63;98024.09;5077573;28;20342;-79
2020/12/05 05:05:52;;;;;;;6.10;3.75;;;;;;;1.15;87.53;98026.38;5077964;28;20133;-76
2020/12/05 05:08:18;;;;;;;7.68;3.92;;;;;;;1.14;87.62;98028.16;5077692;28;20052;-77
2020/12/05 05:10:45;;;;;;;5.35;3.80;;;;;;;1.06;87.39;98004.97;5076464;28;20058;-77
2020/12/05 05:13:19;;;;;;;7.68;4.35;;;;;;;1.29;87.28;98036.09;5076598;28;20121;-77
2020/12/05 05:15:46;;;;;;;6.88;4.00;;;;;;;1.22;87.17;98018.03;5077458;28;20544;-76
2020/12/05 05:18:13;;;;;;;7.95;3.63;;;;;;;1.37;87.38;98044.41;5077496;28;20044;-76
2020/12/05 05:20:44;;;;;;;7.97;4.13;;;;;;;1.38;87.45;98043.47;5077446;28;20052;-78
2020/12/05 05:23:10;;;;;;;7.55;3.95;;;;;;;1.42;87.80;98044.97;5077056;28;20052;-78
2020/12/05 05:25:57;;;;;;;7.32;4.20;;;;;;;1.52;87.64;98053.19;5075880;28;20045;-79
2020/12/05 05:28:28;;;;;;;6.50;3.67;;;;;;;1.49;87.80;98056.81;5077090;28;20056;-77
2020/12/05 05:31:02;;;;;;;4.78;3.90;;;;;;;1.61;87.59;98057.06;5077026;28;20048;-77
2020/12/05 05:33:40;;;;;;;8.43;4.40;;;;;;;1.61;87.76;98047.41;5077234;28;20113;-75
2020/12/05 05:36:26;;;;;;;5.97;4.03;;;;;;;1.68;87.87;98057.56;5076800;28;20338;-78
2020/12/05 05:39:12;;;;;;;7.07;4.20;;;;;;;1.75;87.30;98062.34;5076733;28;20419;-78
2020/12/05 05:41:39;;;;;;;7.72;4.68;;;;;;;1.71;87.83;98044.22;5074922;28;20094;-78
2020/12/05 05:44:11;;;;;;;5.07;4.20;;;;;;;1.82;87.64;98062.00;5076934;28;20064;-76
2020/12/05 05:46:42;;;;;;;6.15;4.15;;;;;;;1.87;87.72;98058.16;5076669;28;20426;-77
2020/12/05 05:49:11;;;;;;;8.00;4.22;;;;;;;1.93;87.86;98061.34;5076564;28;20071;-78
2020/12/05 05:51:40;;;;;;;5.60;4.10;;;;;;;1.98;87.96;98061.94;5076638;28;20396;-76
2020/12/05 05:54:10;;;;;;;8.38;4.53;;;;;;;1.98;87.56;98054.91;5077761;28;20052;-77
2020/12/05 05:56:36;;;;;;;6.88;4.55;;;;;;;2.09;87.38;98071.81;5078655;28;20048;-78
2020/12/05 05:59:05;;;;;;;9.90;5.18;;;;;;;2.06;87.26;98057.06;5077477;28;20452;-77
2020/12/05 06:01:36;;;;;;;8.32;5.50;;;;;;;2.08;88.03;98075.41;5075150;28;20476;-76
2020/12/05 06:04:04;;;;;;;10.13;6.10;;;;;;;2.12;87.74;98071.66;5075490;28;20045;-76
2020/12/05 06:06:33;;;;;;;8.15;5.95;;;;;;;2.13;87.89;98054.91;5076117;28;20418;-76
2020/12/05 06:09:03;;;;;;;9.98;7.35;;;;;;;2.24;87.63;98073.53;5074842;28;20098;-76
2020/12/05 06:11:33;;;;;;;11.85;6.70;;;;;;;2.27;87.58;98089.16;5076185;28;20052;-77
2020/12/05 06:14:03;;;;;;;10.70;6.60;;;;;;;2.39;86.87;98094.63;5076021;28;20392;-76
2020/12/05 06:16:31;;;;;;;9.13;6.25;;;;;;;2.49;86.40;98095.72;5075744;28;20044;-76
2020/12/05 06:18:58;;;;;;;9.20;5.80;;;;;;;2.51;85.84;98093.84;5074807;28;20441;-76
2020/12/05 06:21:31;;;;;;;8.63;6.07;;;;;;;2.53;86.36;98094.63;5074653;28;20524;-76
2020/12/05 06:24:08;;;;;;;8.52;5.78;;;;;;;2.43;85.95;98093.47;5075806;28;20521;-76
2020/12/05 06:26:38;;;;;;;8.00;5.63;;;;;;;2.44;86.30;98113.59;5075946;28;20060;-77
2020/12/05 06:29:07;;;;;;;9.38;6.30;;;;;;;2.52;85.83;98121.91;5075697;28;20527;-77
2020/12/05 06:31:44;;;;;;;9.32;5.57;;;;;;;2.47;86.25;98123.97;5075985;28;20055;-73
2020/12/05 06:34:32;;;;;;;9.10;7.28;;;;;;;2.44;86.38;98130.25;5075701;28;20057;-77
2020/12/05 06:36:59;;;;;;;9.90;5.82;;;;;;;2.38;86.39;98124.50;5074416;28;20127;-73
2020/12/05 06:39:25;;;;;;;10.40;6.75;;;;;;;2.43;86.13;98131.19;5075707;28;20060;-76
2020/12/05 06:41:54;;;;;;;9.40;6.53;;;;;;;2.48;86.20;98145.84;5075113;28;20040;-78
2020/12/05 06:44:34;;;;;;;8.80;6.50;;;;;;;2.50;86.14;98150.09;5075478;28;20040;-77
2020/12/05 06:47:10;;;;;;;8.33;5.90;;;;;;;2.40;86.16;98133.16;5074391;28;20048;-79
2020/12/05 06:49:39;;;;;;;7.30;5.32;;;;;;;2.44;86.34;98151.31;5074615;28;20109;-77
2020/12/05 06:52:24;;;;;;;8.93;5.97;;;;;;;2.38;86.58;98156.09;5075335;28;20084;-79
2020/12/05 06:54:52;;;;;;;10.30;5.93;;;;;;;2.30;86.63;98162.66;5071986;28;20067;-76
2020/12/05 06:57:20;;;;;;;10.60;5.28;;;;;;;2.24;86.67;98154.28;5074093;28;20051;-76
2020/12/05 06:59:46;;;;;;;8.75;5.70;;;;;;;2.38;86.19;98182.41;5074014;28;20053;-75
2020/12/05 07:02:33;;;;;;;8.73;5.28;;;;;;;2.23;86.59;98179.75;5075906;28;20044;-78
2020/12/05 07:05:18;;;;;;;8.45;4.95;;;;;;;2.23;86.46;98179.75;5076095;28;20052;-75
2020/12/05 07:07:52;;;;;;;7.95;5.18;;;;;;;2.25;86.43;98183.16;5070744;28;20049;-75
2020/12/05 07:10:20;;;;;;;6.18;4.90;;;;;;;2.24;86.63;98185.88;5071105;28;20342;-75
2020/12/05 07:12:47;;;;;;;5.88;3.78;;;;;;;2.27;86.34;98191.81;5073900;28;20048;-79
2020/12/05 07:15:28;;;;;;;4.40;3.38;;;;;;;2.34;85.74;98191.44;5073737;28;20048;-78
2020/12/05 07:17:58;;;;;;;6.53;3.42;;;;;;;2.35;85.80;98183.47;5073196;28;20059;-78
2020/12/05 07:20:25;;;;;;;4.43;3.10;;;;;;;2.21;85.61;98165.84;5075389;28;20052;-78
2020/12/05 07:22:53;;;;;;;4.03;2.60;;;;;;;2.34;85.54;98201.97;5074897;28;20131;-76
2020/12/05 07:25:21;;;;;;;4.88;2.80;;;;;;;2.46;84.93;98205.66;5075019;28;20079;-76
2020/12/05 07:27:48;;;;;;;3.63;2.28;;;;;;;2.48;84.47;98216.94;5070822;28;20102;-78
2020/12/05 07:30:14;;;;;;;3.20;2.47;;;;;;;2.42;84.77;98205.00;5063123;28;20048;-76
2020/12/05 07:32:43;;;;;;;2.78;2.00;;;;;;;2.34;84.85;98196.72;5059203;28;20048;-79
2020/12/05 07:35:17;;;;;;;2.60;1.98;;;;;;;2.46;84.13;98219.69;5066297;28;20106;-78
2020/12/05 07:37:45;;;;;;;4.53;1.67;;;;;;;2.49;84.13;98222.13;5063500;28;20052;-75
2020/12/05 07:40:12;;;;;;;4.03;1.70;;;;;;;2.42;84.12;98215.53;5068298;28;20131;-76
2020/12/05 07:42:40;;;;;;;1.92;1.42;;;;;;;2.53;83.75;98228.94;5061910;28;20049;-79
2020/12/05 07:45:12;;;;;;;2.35;1.65;;;;;;;2.57;83.35;98226.97;5065733;28;20068;-77
2020/12/05 07:47:40;;;;;;;3.13;1.90;;;;;;;2.57;83.41;98232.22;5063467;28;20442;-76
2020/12/05 07:50:10;;;;;;;2.53;1.58;;;;;;;2.58;83.54;98233.91;5054781;28;20052;-76
2020/12/05 07:52:43;;;;;;;1.80;1.50;;;;;;;2.54;83.20;98235.03;5053898;28;20055;-79
2020/12/05 07:55:11;;;;;;;2.60;1.88;;;;;;;2.52;83.47;98237.78;5054535;28;20048;-76
2020/12/05 07:57:49;;;;;;;2.83;1.80;;;;;;;2.43;83.32;98233.88;5059505;28;20444;-77
2020/12/05 08:00:18;;;;;;;2.47;1.85;;;;;;;2.48;84.14;98254.69;5070415;28;20061;-76
2020/12/05 08:02:45;;;;;;;2.25;1.83;;;;;;;2.53;83.74;98263.16;5063967;28;20320;-74
2020/12/05 08:05:22;;;;;;;3.15;1.70;;;;;;;2.51;83.29;98266.81;5067402;28;20052;-76
2020/12/05 08:08:03;;;;;;;2.75;1.52;;;;;;;2.46;83.67;98269.72;5068422;28;20053;-76
2020/12/05 08:10:33;;;;;;;2.88;1.67;;;;;;;2.54;83.37;98270.13;5066752;28;20770;-75
2020/12/05 08:13:09;;;;;;;2.55;1.77;;;;;;;2.55;83.42;98266.53;5072503;28;20433;-75
2020/12/05 08:15:36;;;;;;;1.60;1.40;;;;;;;2.47;83.40;98255.63;5070138;28;20341;-74
2020/12/05 08:18:03;;;;;;;2.75;1.67;;;;;;;2.61;82.95;98280.31;5072267;28;20056;-78
2020/12/05 08:20:50;;;;;;;1.95;1.70;;;;;;;2.64;82.97;98277.47;5074174;28;20053;-77
2020/12/05 08:23:30;;;;;;;2.13;1.80;;;;;;;2.56;83.39;98276.13;5063060;28;20102;-77
2020/12/05 08:26:08;;;;;;;2.58;1.70;;;;;;;2.66;83.28;98280.88;5069635;28;20067;-78
2020/12/05 08:28:39;;;;;;;3.13;2.03;;;;;;;2.62;83.47;98288.09;5065856;28;20045;-77
2020/12/05 08:31:10;;;;;;;2.45;1.85;;;;;;;2.71;83.09;98298.09;5067018;28;20068;-74
2020/12/05 08:33:41;;;;;;;1.80;1.60;;;;;;;2.71;82.68;98316.53;5066959;28;20053;-77
2020/12/05 08:36:18;;;;;;;1.40;1.08;;;;;;;2.79;82.22;98315.25;5066663;28;20053;-75
2020/12/05 08:38:44;;;;;;;1.80;1.48;;;;;;;2.73;82.66;98316.47;5062194;28;20057;-76
2020/12/05 08:41:10;;;;;;;1.75;1.30;;;;;;;2.82;81.82;98330.84;5079436;28;20746;-76
2020/12/05 08:43:38;;;;;;;2.05;1.70;;;;;;;2.77;81.64;98310.06;5078159;28;20105;-77
2020/12/05 08:46:22;;;;;;;2.50;1.65;;;;;;;2.76;81.84;98311.00;5076857;28;20125;-78
2020/12/05 08:48:51;;;;;;;2.13;1.55;;;;;;;2.75;81.93;98311.09;5077882;28;20378;-76
2020/12/05 08:51:25;;;;;;;3.03;1.52;;;;;;;2.85;81.60;98333.34;5077661;28;20714;-74
2020/12/05 08:54:04;;;;;;;1.60;1.38;;;;;;;2.92;81.47;98336.44;5074718;28;20064;-76
2020/12/05 08:56:30;;;;;;;3.20;1.40;;;;;;;2.91;81.27;98343.50;5057913;28;20044;-75
2020/12/05 08:58:56;;;;;;;2.47;1.45;;;;;;;2.90;80.73;98335.69;5061402;28;20064;-74
2020/12/05 09:01:34;;;;;;;3.83;1.65;;;;;;;3.04;80.41;98345.44;5065823;28;20508;-75
2020/12/05 09:04:00;;;;;;;2.33;1.55;;;;;;;2.99;80.39;98343.03;5074933;28;20056;-79
2020/12/05 09:06:27;;;;;;;2.33;1.38;;;;;;;2.97;80.18;98344.94;5064090;28;20045;-78
2020/12/05 09:08:53;;;;;;;2.38;1.60;;;;;;;3.04;80.44;98354.16;5079179;28;20052;-78
2020/12/05 09:11:20;;;;;;;3.13;1.60;;;;;;;3.10;79.56;98360.84;5065556;28;20152;-77
2020/12/05 09:13:48;;;;;;;7.68;1.83;;;;;;;2.98;80.34;98346.63;5077057;28;20079;-78
2020/12/05 09:16:14;;;;;;;3.28;1.50;;;;;;;3.08;80.25;98366.25;5077149;28;20427;-78
2020/12/05 09:19:00;;;;;;;2.13;1.58;;;;;;;3.12;79.75;98372.19;5078134;28;20136;-75
2020/12/05 09:21:33;;;;;;;3.35;1.60;;;;;;;3.04;79.72;98363.88;5073123;28;20048;-78
2020/12/05 09:24:05;;;;;;;2.53;1.67;;;;;;;3.16;79.67;98378.13;5068950;28;20052;-75
2020/12/05 09:26:34;;;;;;;2.70;2.03;;;;;;;3.26;78.47;98384.53;5076240;28;20044;-78
2020/12/05 09:29:01;;;;;;;2.42;1.58;;;;;;;3.26;78.87;98390.66;5076825;28;20052;-75
2020/12/05 09:31:30;;;;;;;2.42;1.58;;;;;;;3.30;78.72;98385.19;5076992;28;20048;-73
2020/12/05 09:33:56;;;;;;;1.95;1.25;;;;;;;3.39;78.36;98372.28;5077094;28;20055;-77
2020/12/05 09:36:22;;;;;;;1.75;1.25;;;;;;;3.35;77.78;98362.03;5076029;28;20102;-77
2020/12/05 09:38:49;;;;;;;1.88;1.50;;;;;;;3.35;77.90;98356.75;5070768;28;20048;-78
2020/12/05 09:41:15;;;;;;;2.55;1.50;;;;;;;3.49;77.76;98382.31;5067107;28;20045;-76
2020/12/05 09:43:41;;;;;;;3.03;1.40;;;;;;;3.56;76.76;98391.53;5074697;28;20052;-76
2020/12/05 09:46:08;;;;;;;2.00;1.40;;;;;;;3.60;76.24;98393.03;5065782;28;20430;-74
2020/12/05 09:48:34;;;;;;;2.08;1.50;;;;;;;3.61;76.06;98393.91;5058704;28;20053;-78
2020/12/05 09:51:00;;;;;;;3.92;1.50;;;;;;;3.59;76.36;98388.72;5056908;28;20435;-74
2020/12/05 09:53:26;;;;;;;2.67;1.52;;;;;;;3.69;75.14;98385.53;5056815;28;20052;-77
2020/12/05 09:55:53;;;;;;;3.20;1.48;;;;;;;3.69;74.81;98375.81;5056634;28;20071;-74
2020/12/05 09:58:19;;;;;;;2.90;1.10;;;;;;;3.73;73.65;98366.78;5073454;28;20075;-74
2020/12/05 10:00:45;;;;;;;2.63;1.33;;;;;;;3.82;72.89;98370.63;5076263;28;20327;-78
2020/12/05 10:03:11;;;;;;;1.40;1.00;;;;;;;3.68;72.48;98353.00;5069170;28;20041;-77
2020/12/05 10:05:37;;;;;;;2.58;1.10;;;;;;;3.88;72.32;98383.44;5058160;28;20331;-77
2020/12/05 10:08:05;;;;;;;2.22;1.30;;;;;;;3.83;72.37;98379.38;5068724;28;20098;-78
2020/12/05 10:10:31;;;;;;;1.92;1.23;;;;;;;3.92;72.50;98397.31;5075508;28;20063;-76
2020/12/05 10:12:58;;;;;;;2.67;1.30;;;;;;;3.94;71.93;98396.25;5064694;28;20397;-76
2020/12/05 10:15:24;;;;;;;1.73;1.00;;;;;;;4.05;71.52;98414.06;5069918;28;20059;-77
2020/12/05 10:17:51;;;;;;;3.25;1.08;;;;;;;4.04;70.97;98385.97;5073202;28;20071;-77
2020/12/05 10:20:17;;;;;;;6.32;1.17;;;;;;;4.19;70.53;98400.00;5071655;28;20059;-77
2020/12/05 10:22:43;;;;;;;1.17;1.00;;;;;;;4.25;68.88;98398.75;5074076;28;20331;-76
2020/12/05 10:25:11;;;;;;;3.15;1.55;;;;;;;4.34;68.89;98411.38;5068524;28;20503;-78
2020/12/05 10:27:38;;;;;;;2.80;1.40;;;;;;;4.32;68.81;98409.78;5054728;28;20053;-78
2020/12/05 10:30:04;;;;;;;2.20;1.40;;;;;;;4.41;68.54;98424.22;5053952;28;20049;-76
2020/12/05 10:32:30;;;;;;;2.85;1.08;;;;;;;4.41;67.88;98421.56;5053950;28;20099;-77
2020/12/05 10:34:56;;;;;;;1.85;1.10;;;;;;;4.47;67.75;98416.72;5054556;28;20060;-76
2020/12/05 10:37:23;;;;;;;3.97;1.40;;;;;;;4.54;67.27;98411.06;5054703;28;20049;-76
2020/12/05 10:39:49;;;;;;;1.85;1.08;;;;;;;4.62;66.14;98412.25;5054558;28;20137;-78
2020/12/05 10:42:15;;;;;;;1.88;0.88;;;;;;;4.66;65.84;98402.34;5055088;28;20422;-77
2020/12/05 10:44:41;;;;;;;2.67;1.20;;;;;;;4.61;66.73;98407.94;5054241;28;20048;-78
2020/12/05 10:47:07;;;;;;;2.67;1.45;;;;;;;4.69;66.13;98436.47;5054446;28;20045;-78
2020/12/05 10:49:33;;;;;;;8.88;1.25;;;;;;;4.63;66.16;98413.09;5071125;28;20059;-77
2020/12/05 10:51:59;;;;;;;2.30;1.30;;;;;;;4.78;66.63;98439.50;5055327;28;20083;-78
2020/12/05 10:54:26;;;;;;;2.00;1.02;;;;;;;4.78;66.52;98428.94;5055209;28;20319;-78
2020/12/05 10:56:52;;;;;;;5.97;1.17;;;;;;;4.78;66.92;98424.47;5054411;28;20057;-79
2020/12/05 10:59:18;;;;;;;2.10;1.30;;;;;;;4.81;66.22;98421.63;5070254;28;20053;-79
2020/12/05 11:01:44;;;;;;;2.08;1.00;;;;;;;4.84;65.42;98436.44;5055168;28;20065;-78
2020/12/05 11:04:10;;;;;;;4.15;1.23;;;;;;;4.81;65.51;98408.44;5070373;28;20057;-78
2020/12/05 11:06:36;;;;;;;4.68;1.23;;;;;;;4.88;66.32;98428.22;5055561;28;20075;-78
2020/12/05 11:09:03;;;;;;;6.78;1.48;;;;;;;4.92;66.85;98423.56;5055131;28;20057;-78
2020/12/05 11:11:29;;;;;;;4.88;1.25;;;;;;;4.91;67.24;98416.59;5055019;28;20049;-78
2020/12/05 11:13:55;;;;;;;2.80;1.50;;;;;;;4.95;65.44;98425.19;5055147;28;20060;-79
2020/12/05 11:16:23;;;;;;;2.72;2.17;;;;;;;5.05;64.25;98420.97;5054955;28;20389;-79
2020/12/05 11:18:50;;;;;;;3.90;1.27;;;;;;;5.04;64.30;98424.56;5057000;28;20091;-79
2020/12/05 11:21:16;;;;;;;3.80;1.10;;;;;;;5.11;64.15;98420.56;5054256;28;20056;-78
2020/12/05 11:23:43;;;;;;;3.72;1.23;;;;;;;5.12;63.45;98424.06;5064149;28;20303;-77
2020/12/05 11:26:10;;;;;;;2.65;1.08;;;;;;;5.13;63.36;98423.09;5074745;28;20418;-77
2020/12/05 11:28:36;;;;;;;4.00;1.45;;;;;;;5.18;63.77;98423.66;5075012;28;20056;-78
2020/12/05 11:31:02;;;;;;;3.95;1.00;;;;;;;5.27;62.65;98433.59;5074740;28;20048;-78
2020/12/05 11:33:28;;;;;;;6.70;1.00;;;;;;;5.37;62.86;98427.69;5074697;28;20060;-77
2020/12/05 11:35:55;;;;;;;3.80;1.02;;;;;;;5.44;62.79;98434.25;5075062;28;20049;-78
2020/12/05 11:38:21;;;;;;;2.22;1.00;;;;;;;5.51;62.46;98440.81;5073859;28;20346;-77
2020/12/05 11:40:47;;;;;;;3.17;1.40;;;;;;;5.56;62.14;98444.00;5077478;28;20051;-77
2020/12/05 11:43:15;;;;;;;6.22;1.20;;;;;;;5.58;62.81;98452.69;5079154;28;20067;-78
2020/12/05 11:45:41;;;;;;;2.22;1.00;;;;;;;5.56;63.04;98449.31;5078846;28;20105;-77
2020/12/05 11:48:08;;;;;;;2.40;1.00;;;;;;;5.57;62.92;98445.69;5079004;28;20412;-77